createdAt,value
2019-01-08T00:00:42.392Z,-1.50
2019-01-08T00:03:13.977Z,-1.50
2019-01-08T00:05:45.754Z,-1.50
2019-01-08T00:08:17.534Z,-1.50
2019-01-08T00:10:49.755Z,-1.50
2019-01-08T00:13:21.973Z,-1.50
2019-01-08T00:15:53.753Z,-1.50
2019-01-08T00:18:25.533Z,-1.50
2019-01-08T00:20:57.718Z,-1.50
2019-01-08T00:23:29.365Z,-1.60
2019-01-08T00:26:01.131Z,-1.50
2019-01-08T00:28:33.554Z,-1.50
2019-01-08T00:31:05.448Z,-1.50
2019-01-08T00:33:37.169Z,-1.50
2019-01-08T00:36:10.813Z,-1.50
2019-01-08T00:38:43.154Z,-1.50
2019-01-08T00:41:15.274Z,-1.50
2019-01-08T00:43:47.774Z,-1.50
2019-01-08T00:46:20.115Z,-1.50
2019-01-08T00:48:52.135Z,-1.50
2019-01-08T00:51:24.001Z,-1.50
2019-01-08T00:53:56.014Z,-1.60
2019-01-08T00:56:27.546Z,-1.60
2019-01-08T00:58:59.874Z,-1.60
2019-01-08T01:01:31.675Z,-1.70
2019-01-08T01:04:03.414Z,-1.80
2019-01-08T01:06:35.273Z,-1.80
2019-01-08T01:09:08.332Z,-1.90
2019-01-08T01:11:40.572Z,-1.90
2019-01-08T01:14:12.272Z,-2.00
2019-01-08T01:16:44.055Z,-2.00
2019-01-08T01:19:15.653Z,-2.10
2019-01-08T01:21:47.394Z,-2.20
2019-01-08T01:24:19.573Z,-2.20
2019-01-08T01:26:51.791Z,-2.20
2019-01-08T01:29:23.758Z,-2.30
2019-01-08T01:31:55.765Z,-2.30
2019-01-08T01:34:27.794Z,-2.40
2019-01-08T01:37:00.413Z,-2.40
2019-01-08T01:39:32.734Z,-2.50
2019-01-08T01:42:05.054Z,-2.50
2019-01-08T01:44:36.912Z,-2.50
2019-01-08T01:47:08.992Z,-2.60
2019-01-08T01:49:40.972Z,-2.50
2019-01-08T01:52:12.773Z,-2.50
2019-01-08T01:54:45.189Z,-2.50
2019-01-08T01:57:16.883Z,-2.50
2019-01-08T01:59:48.733Z,-2.50
2019-01-08T02:02:21.134Z,-2.50
2019-01-08T02:04:54.862Z,-2.50
2019-01-08T02:07:27.035Z,-2.50
2019-01-08T02:09:58.772Z,-2.50
2019-01-08T02:12:30.533Z,-2.40
2019-01-08T02:15:02.994Z,-2.40
2019-01-08T02:17:35.314Z,-2.40
2019-01-08T02:20:08.062Z,-2.40
2019-01-08T02:22:40.713Z,-2.30
2019-01-08T02:25:12.714Z,-2.30
2019-01-08T02:27:44.473Z,-2.30
2019-01-08T02:30:16.101Z,-2.20
2019-01-08T02:32:47.732Z,-2.20
2019-01-08T02:35:19.454Z,-2.20
2019-01-08T02:37:51.234Z,-2.20
2019-01-08T02:40:23.013Z,-2.10
2019-01-08T02:42:55.313Z,-2.10
2019-01-08T02:45:27.419Z,-2.10
2019-01-08T02:47:59.273Z,-2.10
2019-01-08T02:50:31.217Z,-2.10
2019-01-08T02:53:03.155Z,-2.10
2019-01-08T02:55:35.134Z,-2.10
2019-01-08T02:58:07.294Z,-2.10
2019-01-08T03:04:06.341Z,-2.20
2019-01-08T03:06:38.881Z,-2.20
2019-01-08T03:09:11.041Z,-2.20
2019-01-08T03:11:43.141Z,-2.20
2019-01-08T03:14:14.962Z,-2.20
2019-01-08T03:16:46.461Z,-2.20
2019-01-08T03:19:18.185Z,-2.30
2019-01-08T03:21:49.810Z,-2.20
2019-01-08T03:24:21.922Z,-2.20
2019-01-08T03:26:54.099Z,-2.20
2019-01-08T03:29:33.351Z,-2.20
2019-01-08T03:31:59.783Z,-2.20
2019-01-08T03:34:31.621Z,-2.20
2019-01-08T03:37:03.841Z,-2.20
2019-01-08T03:39:35.372Z,-2.10
2019-01-08T03:42:07.702Z,-2.10
2019-01-08T03:44:39.422Z,-2.10
2019-01-08T03:47:11.602Z,-2.10
2019-01-08T03:49:43.504Z,-2.10
2019-01-08T03:52:15.542Z,-2.10
2019-01-08T03:54:47.662Z,-2.10
2019-01-08T03:57:19.921Z,-2.10
2019-01-08T03:59:51.760Z,-2.10
2019-01-08T04:02:23.482Z,-2.10
2019-01-08T04:04:55.151Z,-2.10
2019-01-08T04:07:26.841Z,-2.00
2019-01-08T04:09:58.641Z,-2.00
2019-01-08T04:12:30.540Z,-2.00
2019-01-08T04:15:02.048Z,-2.00
2019-01-08T04:17:33.740Z,-1.90
2019-01-08T04:20:05.863Z,-1.80
2019-01-08T04:22:38.320Z,-1.80
2019-01-08T04:25:10.641Z,-1.80
2019-01-08T04:27:42.261Z,-1.80
2019-01-08T04:30:14.222Z,-1.70
2019-01-08T04:32:45.905Z,-1.70
2019-01-08T04:35:18.501Z,-1.60
2019-01-08T04:37:50.560Z,-1.60
2019-01-08T04:40:22.603Z,-1.60
2019-01-08T04:42:54.344Z,-1.60
2019-01-08T04:45:26.250Z,-1.60
2019-01-08T04:47:58.770Z,-1.50
2019-01-08T04:50:30.793Z,-1.50
2019-01-08T04:53:02.800Z,-1.50
2019-01-08T04:55:34.920Z,-1.50
2019-01-08T04:58:07.282Z,-1.50
2019-01-08T05:00:39.943Z,-1.60
2019-01-08T05:03:11.817Z,-1.60
2019-01-08T05:05:43.902Z,-1.60
2019-01-08T05:08:15.941Z,-1.60
2019-01-08T05:10:47.676Z,-1.60
2019-01-08T05:13:19.441Z,-1.50
2019-01-08T05:15:51.126Z,-1.50
2019-01-08T05:18:23.004Z,-1.50
2019-01-08T05:20:55.101Z,-1.50
2019-01-08T05:23:26.780Z,-1.50
2019-01-08T05:25:59.001Z,-1.50
2019-01-08T05:28:30.881Z,-1.50
2019-01-08T05:31:02.762Z,-1.50
2019-01-08T05:33:34.729Z,-1.40
2019-01-08T05:36:07.283Z,-1.40
2019-01-08T05:38:39.378Z,-1.40
2019-01-08T05:41:11.401Z,-1.40
2019-01-08T05:43:43.442Z,-1.30
2019-01-08T05:46:15.276Z,-1.30
2019-01-08T05:48:47.302Z,-1.30
2019-01-08T05:51:20.261Z,-1.20
2019-01-08T05:53:51.941Z,-1.20
2019-01-08T05:56:24.265Z,-1.20
2019-01-08T05:58:56.241Z,-1.10
2019-01-08T06:01:27.896Z,-1.10
2019-01-08T06:03:59.880Z,-1.10
2019-01-08T06:06:31.959Z,-1.10
2019-01-08T06:09:04.881Z,-1.00
2019-01-08T06:11:36.738Z,-1.00
2019-01-08T06:14:08.723Z,-1.00
2019-01-08T06:16:40.701Z,-0.90
2019-01-08T06:19:12.361Z,-0.90
2019-01-08T06:21:44.781Z,-0.90
2019-01-08T06:24:16.722Z,-0.80
2019-01-08T06:26:48.362Z,-0.80
2019-01-08T06:29:20.282Z,-0.80
2019-01-08T06:31:52.042Z,-0.70
2019-01-08T06:34:24.023Z,-0.70
2019-01-08T06:36:55.923Z,-0.70
2019-01-08T06:39:27.822Z,-0.60
2019-01-08T06:41:59.401Z,-0.50
2019-01-08T06:44:31.211Z,-0.50
2019-01-08T06:47:02.921Z,-0.40
2019-01-08T06:49:34.862Z,-0.40
2019-01-08T06:52:06.741Z,-0.40
2019-01-08T06:54:38.502Z,-0.40
2019-01-08T06:57:10.321Z,-0.30
2019-01-08T06:59:42.320Z,-0.40
2019-01-08T07:02:14.021Z,-0.30
2019-01-08T07:04:46.022Z,-0.30
2019-01-08T07:07:17.862Z,-0.30
2019-01-08T07:09:49.762Z,-0.20
2019-01-08T07:12:21.995Z,-0.20
2019-01-08T07:14:53.787Z,-0.20
2019-01-08T07:17:25.601Z,-0.20
2019-01-08T07:19:57.482Z,-0.10
2019-01-08T07:22:30.841Z,0.00
2019-01-08T07:25:02.681Z,0.00
2019-01-08T07:27:34.401Z,0.10
2019-01-08T07:30:06.962Z,0.20
2019-01-08T07:32:40.143Z,0.20
2019-01-08T07:35:12.050Z,0.30
2019-01-08T07:37:44.423Z,0.30
2019-01-08T07:40:16.165Z,0.40
2019-01-08T07:42:47.957Z,0.40
2019-01-08T07:45:19.781Z,0.50
2019-01-08T07:47:51.482Z,0.50
2019-01-08T07:50:23.180Z,0.50
2019-01-08T07:52:55.285Z,0.50
2019-01-08T07:55:27.221Z,0.50
2019-01-08T07:57:59.628Z,0.60
2019-01-08T08:00:31.681Z,0.60
2019-01-08T08:03:03.443Z,0.60
2019-01-08T08:05:35.943Z,0.60
2019-01-08T08:08:08.262Z,0.60
2019-01-08T08:10:39.922Z,0.80
2019-01-08T08:13:12.050Z,0.80
2019-01-08T08:15:44.064Z,0.90
2019-01-08T08:18:16.141Z,1.00
2019-01-08T08:20:47.973Z,1.00
2019-01-08T08:23:19.922Z,1.10
2019-01-08T08:25:51.660Z,1.10
2019-01-08T08:28:23.922Z,1.10
2019-01-08T08:30:58.863Z,1.20
2019-01-08T08:33:29.501Z,1.20
2019-01-08T08:36:01.841Z,1.30
2019-01-08T08:38:33.921Z,1.30
2019-01-08T08:41:05.920Z,1.30
2019-01-08T08:43:37.900Z,1.30
2019-01-08T08:46:09.869Z,1.30
2019-01-08T08:48:41.700Z,1.30
2019-01-08T08:51:13.882Z,1.30
2019-01-08T08:53:52.361Z,1.30
2019-01-08T08:56:19.449Z,1.30
2019-01-08T08:58:51.181Z,1.30
2019-01-08T09:01:23.781Z,1.30
2019-01-08T09:03:56.107Z,1.30
2019-01-08T09:06:28.102Z,1.30
2019-01-08T09:09:00.403Z,1.30
2019-01-08T09:11:32.420Z,1.30
2019-01-08T09:14:04.785Z,1.30
2019-01-08T09:16:36.561Z,1.30
2019-01-08T09:19:09.172Z,1.20
2019-01-08T09:21:41.467Z,1.20
2019-01-08T09:24:13.682Z,1.10
2019-01-08T09:26:45.661Z,1.10
2019-01-08T09:29:17.530Z,1.00
2019-01-08T09:31:49.501Z,1.00
2019-01-08T09:34:21.781Z,1.00
2019-01-08T09:36:53.621Z,1.10
2019-01-08T09:39:25.708Z,1.20
2019-01-08T09:41:58.002Z,1.20
2019-01-08T09:44:30.343Z,1.10
2019-01-08T09:47:02.735Z,1.10
2019-01-08T09:49:35.044Z,1.10
2019-01-08T09:52:07.221Z,1.10
2019-01-08T09:54:39.321Z,1.10
2019-01-08T09:57:11.182Z,1.10
2019-01-08T09:59:42.962Z,1.20
2019-01-08T10:02:16.403Z,1.10
2019-01-08T10:04:48.649Z,1.20
2019-01-08T10:07:20.523Z,1.20
2019-01-08T10:09:52.465Z,1.20
2019-01-08T10:12:24.581Z,1.20
2019-01-08T10:14:56.603Z,1.20
2019-01-08T10:17:28.175Z,1.20
2019-01-08T10:20:00.522Z,1.20
2019-01-08T10:22:32.362Z,1.10
2019-01-08T10:25:04.241Z,1.10
2019-01-08T10:27:36.401Z,1.00
2019-01-08T10:30:10.242Z,0.90
2019-01-08T10:32:42.502Z,1.00
2019-01-08T10:35:14.484Z,1.00
2019-01-08T10:37:46.209Z,1.10
2019-01-08T10:40:18.082Z,1.20
2019-01-08T10:42:49.960Z,1.30
2019-01-08T10:45:21.867Z,1.30
2019-01-08T10:47:53.713Z,1.40
2019-01-08T10:50:25.585Z,1.50
2019-01-08T10:52:58.082Z,1.60
2019-01-08T10:55:29.949Z,1.70
2019-01-08T10:58:02.243Z,1.80
2019-01-08T11:00:34.363Z,2.00
2019-01-08T11:03:06.262Z,2.10
2019-01-08T11:05:38.481Z,2.40
2019-01-08T11:08:10.617Z,2.60
2019-01-08T11:10:42.521Z,2.70
2019-01-08T11:13:14.392Z,2.90
2019-01-08T11:15:47.416Z,3.10
2019-01-08T11:18:20.110Z,3.20
2019-01-08T11:20:51.848Z,3.20
2019-01-08T11:23:23.581Z,3.30
2019-01-08T11:25:55.174Z,3.30
2019-01-08T11:28:27.442Z,3.30
2019-01-08T11:30:59.782Z,3.30
2019-01-08T11:33:31.762Z,3.30
2019-01-08T11:36:03.681Z,3.40
2019-01-08T11:38:35.341Z,3.50
2019-01-08T11:41:07.762Z,3.50
2019-01-08T11:43:39.920Z,3.40
2019-01-08T11:46:12.562Z,3.40
2019-01-08T11:48:44.401Z,3.40
2019-01-08T11:51:16.422Z,3.30
2019-01-08T11:53:48.392Z,3.10
2019-01-08T11:56:21.461Z,3.10
2019-01-08T11:58:53.682Z,3.10
2019-01-08T12:01:25.285Z,3.20
2019-01-08T12:03:57.381Z,3.50
2019-01-08T12:06:29.921Z,3.80
2019-01-08T12:09:01.681Z,4.00
2019-01-08T12:11:34.694Z,4.30
2019-01-08T12:14:06.786Z,4.50
2019-01-08T12:16:38.642Z,4.70
2019-01-08T12:19:10.583Z,4.80
2019-01-08T12:21:43.001Z,4.80
2019-01-08T12:24:14.963Z,4.80
2019-01-08T12:26:46.783Z,4.70
2019-01-08T12:29:18.660Z,4.80
2019-01-08T12:31:50.837Z,5.20
2019-01-08T12:34:22.961Z,5.80
2019-01-08T12:36:55.524Z,7.50
2019-01-08T12:39:27.603Z,9.60
2019-01-08T12:41:59.922Z,11.50
2019-01-08T12:44:31.764Z,13.40
2019-01-08T12:47:03.849Z,14.50
2019-01-08T12:49:36.241Z,15.30
2019-01-08T12:52:08.242Z,16.20
2019-01-08T12:54:40.262Z,16.40
2019-01-08T12:57:12.242Z,16.30
2019-01-08T12:59:44.240Z,15.40
2019-01-08T13:02:16.881Z,14.80
2019-01-08T13:04:49.021Z,13.90
2019-01-08T13:07:20.901Z,12.80
2019-01-08T13:09:52.826Z,11.70
2019-01-08T13:12:24.601Z,10.80
2019-01-08T13:14:56.581Z,9.90
2019-01-08T13:17:28.902Z,9.00
2019-01-08T13:20:00.909Z,8.40
2019-01-08T13:22:32.879Z,7.80
2019-01-08T13:25:04.905Z,7.30
2019-01-08T13:27:36.923Z,7.00
2019-01-08T13:30:09.864Z,6.70
2019-01-08T13:32:41.942Z,6.40
2019-01-08T13:35:15.615Z,6.20
2019-01-08T13:37:47.262Z,6.00
2019-01-08T13:40:19.441Z,5.90
2019-01-08T13:42:51.622Z,5.70
2019-01-08T13:45:23.481Z,5.70
2019-01-08T13:47:55.602Z,5.60
2019-01-08T13:50:27.400Z,5.40
2019-01-08T13:52:59.416Z,5.40
2019-01-08T13:55:31.800Z,5.30
2019-01-08T13:58:04.522Z,5.20
2019-01-08T14:00:36.539Z,5.20
2019-01-08T14:03:09.002Z,5.10
2019-01-08T14:05:41.082Z,5.10
2019-01-08T14:08:12.802Z,5.00
2019-01-08T14:10:44.713Z,5.00
2019-01-08T14:13:16.483Z,5.00
2019-01-08T14:15:49.098Z,5.00
2019-01-08T14:18:21.936Z,5.00
2019-01-08T14:20:54.402Z,5.10
2019-01-08T14:23:26.209Z,5.20
2019-01-08T14:25:57.941Z,5.60
2019-01-08T14:28:29.844Z,6.00
2019-01-08T14:31:01.801Z,6.30
2019-01-08T14:33:33.480Z,6.40
2019-01-08T14:36:06.001Z,6.50
2019-01-08T14:38:38.640Z,6.60
2019-01-08T14:41:11.300Z,6.50
2019-01-08T14:43:43.781Z,6.40
2019-01-08T14:46:15.850Z,6.20
2019-01-08T14:48:47.742Z,6.00
2019-01-08T14:51:19.558Z,5.80
2019-01-08T14:53:51.622Z,5.70
2019-01-08T14:56:23.597Z,5.60
2019-01-08T14:58:55.186Z,5.50
2019-01-08T15:01:27.280Z,5.50
2019-01-08T15:03:59.221Z,5.40
2019-01-08T15:06:31.440Z,5.30
2019-01-08T15:09:04.881Z,5.20
2019-01-08T15:11:36.661Z,5.10
2019-01-08T15:14:08.580Z,5.10
2019-01-08T15:16:41.133Z,4.90
2019-01-08T15:19:13.209Z,4.80
2019-01-08T15:21:45.110Z,4.80
2019-01-08T15:24:17.121Z,4.70
2019-01-08T15:26:50.181Z,4.60
2019-01-08T15:29:22.322Z,4.60
2019-01-08T15:31:53.890Z,4.60
2019-01-08T15:34:25.469Z,4.50
2019-01-08T15:36:57.560Z,4.50
2019-01-08T15:39:29.426Z,4.30
2019-01-08T15:42:02.204Z,4.20
2019-01-08T15:44:34.300Z,4.10
2019-01-08T15:47:06.040Z,4.00
2019-01-08T15:49:37.968Z,3.90
2019-01-08T15:52:09.662Z,3.80
2019-01-08T15:54:41.841Z,3.70
2019-01-08T15:57:13.981Z,3.60
2019-01-08T15:59:45.721Z,3.50
2019-01-08T16:02:17.700Z,3.30
2019-01-08T16:04:50.182Z,3.20
2019-01-08T16:07:21.801Z,3.10
2019-01-08T16:09:53.861Z,3.00
2019-01-08T16:12:25.841Z,2.90
2019-01-08T16:14:57.995Z,2.80
2019-01-08T16:17:29.860Z,2.80
2019-01-08T16:20:01.902Z,2.70
2019-01-08T16:22:33.841Z,2.70
2019-01-08T16:25:06.103Z,2.70
2019-01-08T16:27:37.901Z,2.70
2019-01-08T16:30:10.480Z,2.70
2019-01-08T16:32:42.480Z,2.70
2019-01-08T16:35:14.596Z,2.70
2019-01-08T16:37:46.481Z,2.80
2019-01-08T16:40:18.385Z,2.80
2019-01-08T16:42:51.767Z,2.90
2019-01-08T16:45:23.781Z,2.90
2019-01-08T16:47:56.402Z,2.90
2019-01-08T16:50:28.721Z,2.90
2019-01-08T16:53:00.920Z,2.90
2019-01-08T16:55:32.645Z,2.90
2019-01-08T16:58:04.721Z,2.90
2019-01-08T17:00:36.710Z,2.90
2019-01-08T17:03:08.818Z,2.90
2019-01-08T17:05:40.747Z,3.00
2019-01-08T17:08:12.802Z,3.10
2019-01-08T17:10:44.741Z,3.10
2019-01-08T17:13:16.403Z,3.10
2019-01-08T17:15:48.848Z,3.10
2019-01-08T17:18:20.606Z,3.20
2019-01-08T17:20:52.722Z,3.20
2019-01-08T17:23:24.951Z,3.20
2019-01-08T17:25:57.107Z,3.30
2019-01-08T17:28:29.363Z,3.30
2019-01-08T17:31:01.421Z,3.30
2019-01-08T17:33:34.067Z,3.40
2019-01-08T17:36:06.569Z,3.40
2019-01-08T17:38:38.321Z,3.40
2019-01-08T17:41:09.998Z,3.30
2019-01-08T17:43:42.530Z,3.40
2019-01-08T17:46:14.653Z,3.40
2019-01-08T17:48:46.961Z,3.50
2019-01-08T17:51:18.756Z,3.50
2019-01-08T17:53:50.664Z,3.60
2019-01-08T17:56:23.031Z,3.70
2019-01-08T17:59:01.501Z,3.80
2019-01-08T18:01:35.841Z,3.90
2019-01-08T18:04:13.258Z,4.00
2019-01-08T18:06:45.305Z,4.00
2019-01-08T18:09:17.184Z,4.00
2019-01-08T18:11:49.382Z,4.00
2019-01-08T18:14:21.541Z,4.10
2019-01-08T18:16:54.000Z,4.20
2019-01-08T18:19:25.782Z,4.20
2019-01-08T18:21:57.960Z,4.30
2019-01-08T18:24:30.158Z,4.40
2019-01-08T18:27:01.957Z,4.40
2019-01-08T18:29:34.023Z,4.40
2019-01-08T18:32:06.361Z,4.40
2019-01-08T18:34:38.042Z,4.40
2019-01-08T18:37:10.261Z,4.30
2019-01-08T18:39:42.482Z,4.30
2019-01-08T18:42:14.402Z,4.20
2019-01-08T18:44:46.159Z,4.20
2019-01-08T18:47:18.361Z,4.10
2019-01-08T18:49:50.321Z,4.10
2019-01-08T18:52:22.260Z,4.10
2019-01-08T18:54:54.326Z,4.00
2019-01-08T18:57:26.350Z,4.00
2019-01-08T18:59:58.061Z,4.00
2019-01-08T19:02:30.342Z,4.10
2019-01-08T19:05:02.001Z,4.10
2019-01-08T19:07:34.202Z,4.30
2019-01-08T19:10:12.691Z,4.40
2019-01-08T19:12:44.702Z,4.50
2019-01-08T19:15:17.043Z,4.70
2019-01-08T19:17:50.101Z,4.80
2019-01-08T19:20:22.060Z,5.00
2019-01-08T19:22:54.241Z,5.10
2019-01-08T19:25:26.011Z,5.20
2019-01-08T19:27:58.182Z,5.30
2019-01-08T19:30:30.982Z,5.40
2019-01-08T19:33:03.163Z,5.40
2019-01-08T19:35:36.687Z,5.40
2019-01-08T19:38:08.960Z,5.40
2019-01-08T19:40:41.250Z,5.40
2019-01-08T19:43:13.132Z,5.40
2019-01-08T19:45:45.127Z,5.40
2019-01-08T19:48:17.321Z,5.40
2019-01-08T19:50:48.974Z,5.30
2019-01-08T19:53:21.302Z,5.30
2019-01-08T19:55:54.162Z,5.30
2019-01-08T19:58:26.362Z,5.30
2019-01-08T20:00:58.241Z,5.30
2019-01-08T20:03:30.117Z,5.30
2019-01-08T20:06:03.449Z,5.30
2019-01-08T20:08:35.201Z,5.30
2019-01-08T20:11:07.161Z,5.30
2019-01-08T20:13:38.779Z,5.20
2019-01-08T20:16:10.938Z,5.20
2019-01-08T20:18:45.247Z,5.20
2019-01-08T20:21:16.448Z,5.20
2019-01-08T20:23:48.423Z,5.20
2019-01-08T20:26:20.402Z,5.20
2019-01-08T20:28:52.281Z,5.20
2019-01-08T20:31:24.760Z,5.10
2019-01-08T20:33:56.607Z,5.00
2019-01-08T20:36:29.262Z,4.90
2019-01-08T20:39:01.540Z,4.90
2019-01-08T20:41:33.484Z,4.80
2019-01-08T20:44:05.363Z,4.80
2019-01-08T20:46:37.421Z,4.90
2019-01-08T20:49:09.682Z,5.00
2019-01-08T20:51:42.361Z,5.20
2019-01-08T20:54:14.421Z,5.30
2019-01-08T20:56:46.326Z,5.30
2019-01-08T20:59:18.682Z,5.30
2019-01-08T21:01:50.452Z,5.30
2019-01-08T21:04:22.537Z,5.30
2019-01-08T21:06:55.942Z,5.30
2019-01-08T21:09:28.245Z,5.30
2019-01-08T21:12:00.751Z,5.30
2019-01-08T21:14:33.064Z,5.30
2019-01-08T21:17:06.243Z,5.30
2019-01-08T21:19:38.162Z,5.30
2019-01-08T21:22:10.184Z,5.30
2019-01-08T21:24:42.877Z,5.30
2019-01-08T21:27:15.996Z,5.30
2019-01-08T21:29:48.063Z,5.30
2019-01-08T21:32:21.048Z,5.20
2019-01-08T21:34:53.764Z,5.20
2019-01-08T21:37:28.266Z,5.20
2019-01-08T21:40:00.244Z,5.20
2019-01-08T21:42:32.208Z,5.20
2019-01-08T21:45:05.979Z,5.20
2019-01-08T21:47:37.843Z,5.10
2019-01-08T21:50:10.583Z,5.20
2019-01-08T21:52:42.268Z,5.20
2019-01-08T21:55:14.315Z,5.20
2019-01-08T21:57:46.121Z,5.20
2019-01-08T22:00:17.921Z,5.20
2019-01-08T22:02:49.645Z,5.20
2019-01-08T22:05:21.522Z,5.20
2019-01-08T22:07:53.902Z,5.10
2019-01-08T22:10:26.021Z,5.10
2019-01-08T22:12:58.496Z,5.00
2019-01-08T22:15:30.262Z,4.90
2019-01-08T22:18:02.759Z,4.80
2019-01-08T22:20:35.702Z,4.70
2019-01-08T22:23:08.262Z,4.60
2019-01-08T22:25:40.081Z,4.60
2019-01-08T22:28:13.081Z,4.60
2019-01-08T22:30:46.114Z,4.50
2019-01-08T22:33:17.781Z,4.50
2019-01-08T22:35:49.960Z,4.50
2019-01-08T22:38:21.882Z,4.60
2019-01-08T22:40:54.203Z,4.60
2019-01-08T22:43:25.842Z,4.80
2019-01-08T22:45:57.485Z,4.90
2019-01-08T22:48:29.189Z,5.00
2019-01-08T22:51:01.041Z,5.10
2019-01-08T22:53:33.043Z,5.10
2019-01-08T22:56:05.683Z,5.20
2019-01-08T22:58:37.561Z,5.20
2019-01-08T23:01:22.862Z,5.20
2019-01-08T23:03:54.510Z,5.20
2019-01-08T23:06:26.802Z,5.20
2019-01-08T23:08:58.762Z,5.10
2019-01-08T23:11:30.803Z,5.10
2019-01-08T23:14:03.334Z,5.10
2019-01-08T23:16:35.162Z,5.00
2019-01-08T23:19:07.542Z,5.00
2019-01-08T23:21:40.099Z,5.00
2019-01-08T23:24:12.469Z,4.90
2019-01-08T23:26:44.455Z,4.90
2019-01-08T23:29:16.118Z,4.80
2019-01-08T23:31:48.181Z,4.80
2019-01-08T23:34:20.370Z,4.80
2019-01-08T23:36:52.242Z,4.80
2019-01-08T23:39:23.919Z,4.80
2019-01-08T23:41:55.764Z,4.80
2019-01-08T23:44:27.702Z,4.80
2019-01-08T23:46:59.528Z,4.80
2019-01-08T23:49:31.170Z,4.80
2019-01-08T23:52:13.623Z,4.80
2019-01-08T23:54:48.420Z,4.70
2019-01-08T23:57:21.221Z,4.70
2019-01-08T23:59:53.201Z,4.70
